sensor_id;sensor_type;location;lat;lon;timestamp;pressure;altitude;pressure_sealevel;temperature;humidity
18985;BME280;9626;52.552;13.436;2023-12-20T00:02:21;100362.81;;;7.08;100.00
18985;BME280;9626;52.552;13.436;2023-12-20T00:04:47;100354.06;;;7.03;100.00
18985;BME280;9626;52.552;13.436;2023-12-20T00:07:13;100362.03;;;6.99;100.00
18985;BME280;9626;52.552;13.436;2023-12-20T00:09:39;100356.69;;;7.03;100.00
18985;BME280;9626;52.552;13.436;2023-12-20T00:12:05;100364.50;;;7.14;100.00
18985;BME280;9626;52.552;13.436;2023-12-20T00:14:31;100346.88;;;7.21;100.00
18985;BME280;9626;52.552;13.436;2023-12-20T00:16:57;100353.94;;;7.19;100.00
18985;BME280;9626;52.552;13.436;2023-12-20T00:19:23;100348.75;;;7.09;100.00
18985;BME280;9626;52.552;13.436;2023-12-20T00:21:49;100338.13;;;7.16;100.00
18985;BME280;9626;52.552;13.436;2023-12-20T00:24:15;100331.09;;;7.18;100.00
18985;BME280;9626;52.552;13.436;2023-12-20T00:26:42;100345.09;;;7.23;100.00
18985;BME280;9626;52.552;13.436;2023-12-20T00:29:08;100330.31;;;7.09;100.00
18985;BME280;9626;52.552;13.436;2023-12-20T00:31:34;100339.19;;;6.99;100.00
18985;BME280;9626;52.552;13.436;2023-12-20T00:34:00;100333.09;;;6.97;100.00
18985;BME280;9626;52.552;13.436;2023-12-20T00:36:26;100328.66;;;6.99;100.00
18985;BME280;9626;52.552;13.436;2023-12-20T00:38:52;100324.97;;;7.16;100.00
18985;BME280;9626;52.552;13.436;2023-12-20T00:41:18;100327.66;;;7.13;100.00
18985;BME280;9626;52.552;13.436;2023-12-20T00:43:44;100331.09;;;7.18;100.00
18985;BME280;9626;52.552;13.436;2023-12-20T00:46:10;100324.97;;;7.16;100.00
18985;BME280;9626;52.552;13.436;2023-12-20T00:48:36;100328.56;;;7.10;100.00
18985;BME280;9626;52.552;13.436;2023-12-20T00:51:03;100323.28;;;7.13;100.00
18985;BME280;9626;52.552;13.436;2023-12-20T00:53:29;100320.63;;;7.15;100.00
18985;BME280;9626;52.552;13.436;2023-12-20T00:55:55;100324.97;;;7.17;100.00
18985;BME280;9626;52.552;13.436;2023-12-20T00:58:21;100324.31;;;6.95;100.00
18985;BME280;9626;52.552;13.436;2023-12-20T01:00:47;100333.94;;;6.98;100.00
18985;BME280;9626;52.552;13.436;2023-12-20T01:03:13;100331.31;;;6.99;100.00
18985;BME280;9626;52.552;13.436;2023-12-20T01:05:40;100339.19;;;6.99;100.00
18985;BME280;9626;52.552;13.436;2023-12-20T01:08:07;100332.09;;;7.06;100.00
18985;BME280;9626;52.552;13.436;2023-12-20T01:10:32;100330.38;;;7.05;100.00
18985;BME280;9626;52.552;13.436;2023-12-20T01:12:58;100327.75;;;7.03;100.00
18985;BME280;9626;52.552;13.436;2023-12-20T01:15:24;100332.03;;;7.14;100.00
18985;BME280;9626;52.552;13.436;2023-12-20T01:17:51;100339.91;;;7.15;100.00
18985;BME280;9626;52.552;13.436;2023-12-20T01:20:17;100342.47;;;7.23;100.00
18985;BME280;9626;52.552;13.436;2023-12-20T01:22:43;100335.63;;;7.03;100.00
18985;BME280;9626;52.552;13.436;2023-12-20T01:25:12;100337.31;;;7.14;100.00
18985;BME280;9626;52.552;13.436;2023-12-20T01:27:38;100325.97;;;7.05;100.00
18985;BME280;9626;52.552;13.436;2023-12-20T01:30:04;100335.50;;;7.16;100.00
18985;BME280;9626;52.552;13.436;2023-12-20T01:32:30;100334.72;;;7.10;100.00
18985;BME280;9626;52.552;13.436;2023-12-20T01:34:56;100332.13;;;7.04;100.00
18985;BME280;9626;52.552;13.436;2023-12-20T01:37:22;100332.97;;;7.09;100.00
18985;BME280;9626;52.552;13.436;2023-12-20T01:39:51;100336.50;;;7.05;100.00
18985;BME280;9626;52.552;13.436;2023-12-20T01:42:18;100334.72;;;7.10;100.00
18985;BME280;9626;52.552;13.436;2023-12-20T01:44:44;100333.81;;;7.10;100.00
18985;BME280;9626;52.552;13.436;2023-12-20T01:47:10;100332.09;;;7.09;100.00
18985;BME280;9626;52.552;13.436;2023-12-20T01:49:36;100332.75;;;7.26;100.00
18985;BME280;9626;52.552;13.436;2023-12-20T01:52:03;100324.03;;;7.23;100.00
18985;BME280;9626;52.552;13.436;2023-12-20T01:54:29;100323.22;;;7.16;100.00
18985;BME280;9626;52.552;13.436;2023-12-20T01:56:56;100318.88;;;7.12;100.00
18985;BME280;9626;52.552;13.436;2023-12-20T01:59:22;100315.59;;;6.91;100.00
18985;BME280;9626;52.552;13.436;2023-12-20T02:01:48;100320.72;;;7.05;100.00
18985;BME280;9626;52.552;13.436;2023-12-20T02:04:15;100319.59;;;7.25;100.00
18985;BME280;9626;52.552;13.436;2023-12-20T02:06:42;100316.16;;;7.21;100.00
18985;BME280;9626;52.552;13.436;2023-12-20T02:09:09;100315.38;;;7.11;100.00
18985;BME280;9626;52.552;13.436;2023-12-20T02:11:35;100307.72;;;6.88;100.00
18985;BME280;9626;52.552;13.436;2023-12-20T02:14:01;100301.69;;;6.77;100.00
18985;BME280;9626;52.552;13.436;2023-12-20T02:16:27;100305.03;;;6.94;100.00
18985;BME280;9626;52.552;13.436;2023-12-20T02:18:53;100306.84;;;6.88;100.00
18985;BME280;9626;52.552;13.436;2023-12-20T02:21:25;100312.97;;;6.91;100.00
18985;BME280;9626;52.552;13.436;2023-12-20T02:23:51;100308.66;;;6.86;100.00
18985;BME280;9626;52.552;13.436;2023-12-20T02:26:17;100302.31;;;7.01;100.00
18985;BME280;9626;52.552;13.436;2023-12-20T02:28:44;100299.75;;;6.96;100.00
18985;BME280;9626;52.552;13.436;2023-12-20T02:31:10;100300.69;;;6.90;100.00
18985;BME280;9626;52.552;13.436;2023-12-20T02:33:36;100302.34;;;6.99;100.00
18985;BME280;9626;52.552;13.436;2023-12-20T02:36:02;100301.53;;;6.92;100.00
18985;BME280;9626;52.552;13.436;2023-12-20T02:38:28;100314.78;;;6.86;100.00
18985;BME280;9626;52.552;13.436;2023-12-20T02:40:54;100309.50;;;6.86;100.00
18985;BME280;9626;52.552;13.436;2023-12-20T02:43:20;100302.56;;;6.81;100.00
18985;BME280;9626;52.552;13.436;2023-12-20T02:45:46;100308.66;;;6.83;100.00
18985;BME280;9626;52.552;13.436;2023-12-20T02:48:12;100305.97;;;6.89;100.00
18985;BME280;9626;52.552;13.436;2023-12-20T02:50:38;100293.78;;;6.82;100.00
18985;BME280;9626;52.552;13.436;2023-12-20T02:53:04;100305.00;;;6.98;100.00
18985;BME280;9626;52.552;13.436;2023-12-20T02:55:30;100301.50;;;6.97;100.00
18985;BME280;9626;52.552;13.436;2023-12-20T02:57:56;100304.97;;;6.99;100.00
18985;BME280;9626;52.552;13.436;2023-12-20T03:00:22;100305.19;;;6.77;100.00
18985;BME280;9626;52.552;13.436;2023-12-20T03:02:48;100313.88;;;6.89;100.00
18985;BME280;9626;52.552;13.436;2023-12-20T03:05:14;100306.81;;;6.94;100.00
18985;BME280;9626;52.552;13.436;2023-12-20T03:07:40;100304.28;;;6.85;100.00
18985;BME280;9626;52.552;13.436;2023-12-20T03:10:06;100305.88;;;6.97;100.00
18985;BME280;9626;52.552;13.436;2023-12-20T03:12:33;100311.13;;;6.97;100.00
18985;BME280;9626;52.552;13.436;2023-12-20T03:14:59;100316.34;;;7.03;100.00
18985;BME280;9626;52.552;13.436;2023-12-20T03:17:25;100310.28;;;6.96;100.00
18985;BME280;9626;52.552;13.436;2023-12-20T03:19:51;100304.09;;;7.00;100.00
18985;BME280;9626;52.552;13.436;2023-12-20T03:22:17;100302.44;;;6.88;100.00
18985;BME280;9626;52.552;13.436;2023-12-20T03:24:43;100315.59;;;6.93;100.00
18985;BME280;9626;52.552;13.436;2023-12-20T03:27:09;100314.72;;;6.91;100.00
18985;BME280;9626;52.552;13.436;2023-12-20T03:29:35;100312.00;;;7.00;100.00
18985;BME280;9626;52.552;13.436;2023-12-20T03:32:03;100309.44;;;6.91;100.00
18985;BME280;9626;52.552;13.436;2023-12-20T03:34:29;100312.13;;;6.88;100.00
18985;BME280;9626;52.552;13.436;2023-12-20T03:36:55;100309.56;;;6.82;100.00
18985;BME280;9626;52.552;13.436;2023-12-20T03:39:22;100312.28;;;6.72;100.00
18985;BME280;9626;52.552;13.436;2023-12-20T03:41:48;100314.03;;;6.75;100.00
18985;BME280;9626;52.552;13.436;2023-12-20T03:44:14;100317.47;;;6.82;100.00
18985;BME280;9626;52.552;13.436;2023-12-20T03:46:40;100299.94;;;6.77;100.00
18985;BME280;9626;52.552;13.436;2023-12-20T03:49:06;100294.72;;;6.74;100.00
18985;BME280;9626;52.552;13.436;2023-12-20T03:51:32;100300.97;;;6.64;100.00
18985;BME280;9626;52.552;13.436;2023-12-20T03:53:58;100291.25;;;6.68;100.00
18985;BME280;9626;52.552;13.436;2023-12-20T03:56:24;100299.94;;;6.81;100.00
18985;BME280;9626;52.552;13.436;2023-12-20T03:58:50;100298.22;;;6.73;100.00
18985;BME280;9626;52.552;13.436;2023-12-20T04:01:16;100296.50;;;6.69;100.00
18985;BME280;9626;52.552;13.436;2023-12-20T04:03:42;100290.44;;;6.64;100.00
18985;BME280;9626;52.552;13.436;2023-12-20T04:06:08;100296.59;;;6.63;100.00
18985;BME280;9626;52.552;13.436;2023-12-20T04:08:35;100282.56;;;6.64;100.00
18985;BME280;9626;52.552;13.436;2023-12-20T04:11:01;100280.75;;;6.68;100.00
18985;BME280;9626;52.552;13.436;2023-12-20T04:13:27;100277.25;;;6.67;100.00
18985;BME280;9626;52.552;13.436;2023-12-20T04:15:53;100272.16;;;6.52;100.00
18985;BME280;9626;52.552;13.436;2023-12-20T04:18:19;100281.75;;;6.54;100.00
18985;BME280;9626;52.552;13.436;2023-12-20T04:20:45;100282.50;;;6.67;100.00
18985;BME280;9626;52.552;13.436;2023-12-20T04:23:11;100277.28;;;6.64;100.00
18985;BME280;9626;52.552;13.436;2023-12-20T04:25:37;100273.81;;;6.59;100.00
18985;BME280;9626;52.552;13.436;2023-12-20T04:28:03;100276.50;;;6.53;100.00
18985;BME280;9626;52.552;13.436;2023-12-20T04:30:29;100268.59;;;6.53;100.00
18985;BME280;9626;52.552;13.436;2023-12-20T04:32:55;100269.50;;;6.50;100.00
18985;BME280;9626;52.552;13.436;2023-12-20T04:35:22;100264.25;;;6.50;100.00
18985;BME280;9626;52.552;13.436;2023-12-20T04:37:48;100262.53;;;6.48;100.00
18985;BME280;9626;52.552;13.436;2023-12-20T04:40:15;100272.16;;;6.49;100.00
18985;BME280;9626;52.552;13.436;2023-12-20T04:42:41;100273.91;;;6.50;100.00
18985;BME280;9626;52.552;13.436;2023-12-20T04:45:07;100277.50;;;6.42;100.00
18985;BME280;9626;52.552;13.436;2023-12-20T04:47:33;100277.53;;;6.39;100.00
18985;BME280;9626;52.552;13.436;2023-12-20T04:49:59;100278.41;;;6.35;100.00
18985;BME280;9626;52.552;13.436;2023-12-20T04:52:25;100276.66;;;6.36;100.00
18985;BME280;9626;52.552;13.436;2023-12-20T04:54:51;100275.00;;;6.29;100.00
18985;BME280;9626;52.552;13.436;2023-12-20T04:57:17;100266.22;;;6.26;100.00
18985;BME280;9626;52.552;13.436;2023-12-20T04:59:43;100271.34;;;6.43;100.00
18985;BME280;9626;52.552;13.436;2023-12-20T05:02:09;100270.53;;;6.35;100.00
18985;BME280;9626;52.552;13.436;2023-12-20T05:04:35;100277.53;;;6.36;100.00
18985;BME280;9626;52.552;13.436;2023-12-20T05:07:01;100276.59;;;6.42;100.00
18985;BME280;9626;52.552;13.436;2023-12-20T05:09:27;100279.31;;;6.34;100.00
18985;BME280;9626;52.552;13.436;2023-12-20T05:11:53;100281.03;;;6.35;100.00
18985;BME280;9626;52.552;13.436;2023-12-20T05:14:19;100272.34;;;6.27;100.00
18985;BME280;9626;52.552;13.436;2023-12-20T05:16:45;100275.84;;;6.29;100.00
18985;BME280;9626;52.552;13.436;2023-12-20T05:19:11;100281.94;;;6.34;100.00
18985;BME280;9626;52.552;13.436;2023-12-20T05:21:37;100278.47;;;6.31;100.00
18985;BME280;9626;52.552;13.436;2023-12-20T05:24:04;100274.94;;;6.33;100.00
18985;BME280;9626;52.552;13.436;2023-12-20T05:26:30;100282.84;;;6.30;100.00
18985;BME280;9626;52.552;13.436;2023-12-20T05:28:56;100268.09;;;6.15;100.00
18985;BME280;9626;52.552;13.436;2023-12-20T05:31:22;100280.28;;;6.22;100.00
18985;BME280;9626;52.552;13.436;2023-12-20T05:33:48;100277.81;;;6.05;100.00
18985;BME280;9626;52.552;13.436;2023-12-20T05:36:14;100274.38;;;5.91;100.00
18985;BME280;9626;52.552;13.436;2023-12-20T05:38:40;100261.22;;;5.91;100.00
18985;BME280;9626;52.552;13.436;2023-12-20T05:41:06;100268.19;;;5.95;100.00
18985;BME280;9626;52.552;13.436;2023-12-20T05:43:32;100266.50;;;5.89;100.00
18985;BME280;9626;52.552;13.436;2023-12-20T05:45:58;100264.72;;;5.95;100.00
18985;BME280;9626;52.552;13.436;2023-12-20T05:48:24;100262.06;;;5.99;100.00
18985;BME280;9626;52.552;13.436;2023-12-20T05:50:50;100259.53;;;5.79;100.00
18985;BME280;9626;52.552;13.436;2023-12-20T05:53:16;100261.28;;;5.80;100.00
18985;BME280;9626;52.552;13.436;2023-12-20T05:55:42;100255.25;;;5.64;100.00
18985;BME280;9626;52.552;13.436;2023-12-20T05:58:08;100262.31;;;5.56;100.00
18985;BME280;9626;52.552;13.436;2023-12-20T06:00:34;100254.44;;;5.56;100.00
18985;BME280;9626;52.552;13.436;2023-12-20T06:03:00;100264.06;;;5.57;100.00
18985;BME280;9626;52.552;13.436;2023-12-20T06:05:26;100267.56;;;5.56;100.00
18985;BME280;9626;52.552;13.436;2023-12-20T06:07:52;100261.44;;;5.58;100.00
18985;BME280;9626;52.552;13.436;2023-12-20T06:10:20;100244.75;;;5.64;100.00
18985;BME280;9626;52.552;13.436;2023-12-20T06:12:47;100257.13;;;5.50;100.00
18985;BME280;9626;52.552;13.436;2023-12-20T06:15:15;100251.00;;;5.45;100.00
18985;BME280;9626;52.552;13.436;2023-12-20T06:17:41;100245.72;;;5.54;100.00
18985;BME280;9626;52.552;13.436;2023-12-20T06:20:08;100244.91;;;5.39;100.00
18985;BME280;9626;52.552;13.436;2023-12-20T06:22:35;100233.56;;;5.36;100.00
18985;BME280;9626;52.552;13.436;2023-12-20T06:25:02;100241.38;;;5.44;100.00
18985;BME280;9626;52.552;13.436;2023-12-20T06:27:28;100242.25;;;5.41;100.00
18985;BME280;9626;52.552;13.436;2023-12-20T06:29:54;100249.28;;;5.42;100.00
18985;BME280;9626;52.552;13.436;2023-12-20T06:32:20;100261.56;;;5.40;100.00
18985;BME280;9626;52.552;13.436;2023-12-20T06:34:49;100258.00;;;5.47;100.00
18985;BME280;9626;52.552;13.436;2023-12-20T06:37:15;100259.75;;;5.44;100.00
18985;BME280;9626;52.552;13.436;2023-12-20T06:39:41;100251.84;;;5.47;100.00
18985;BME280;9626;52.552;13.436;2023-12-20T06:42:07;100249.25;;;5.44;100.00
18985;BME280;9626;52.552;13.436;2023-12-20T06:44:33;100249.28;;;5.42;100.00
18985;BME280;9626;52.552;13.436;2023-12-20T06:47:00;100247.44;;;5.53;100.00
18985;BME280;9626;52.552;13.436;2023-12-20T06:49:27;100245.78;;;5.38;100.00
18985;BME280;9626;52.552;13.436;2023-12-20T06:51:53;100231.84;;;5.32;100.00
18985;BME280;9626;52.552;13.436;2023-12-20T06:54:19;100238.81;;;5.36;100.00
18985;BME280;9626;52.552;13.436;2023-12-20T06:56:45;100237.94;;;5.34;100.00
18985;BME280;9626;52.552;13.436;2023-12-20T06:59:11;100234.41;;;5.44;100.00
18985;BME280;9626;52.552;13.436;2023-12-20T07:01:36;100237.94;;;5.35;100.00
18985;BME280;9626;52.552;13.436;2023-12-20T07:04:03;100242.38;;;5.22;100.00
18985;BME280;9626;52.552;13.436;2023-12-20T07:06:29;100225.66;;;5.40;100.00
18985;BME280;9626;52.552;13.436;2023-12-20T07:08:55;100233.53;;;5.40;100.00
18985;BME280;9626;52.552;13.436;2023-12-20T07:11:21;100229.19;;;5.33;100.00
18985;BME280;9626;52.552;13.436;2023-12-20T07:13:47;100230.00;;;5.43;100.00
18985;BME280;9626;52.552;13.436;2023-12-20T07:16:13;100233.53;;;5.40;100.00
18985;BME280;9626;52.552;13.436;2023-12-20T07:18:39;100227.41;;;5.38;100.00
18985;BME280;9626;52.552;13.436;2023-12-20T07:21:05;100240.50;;;5.45;100.00
18985;BME280;9626;52.552;13.436;2023-12-20T07:23:34;100230.84;;;5.50;100.00
18985;BME280;9626;52.552;13.436;2023-12-20T07:26:00;100235.19;;;5.54;100.00
18985;BME280;9626;52.552;13.436;2023-12-20T07:28:26;100222.09;;;5.52;100.00
18985;BME280;9626;52.552;13.436;2023-12-20T07:30:52;100227.28;;;5.60;100.00
18985;BME280;9626;52.552;13.436;2023-12-20T07:33:18;100230.78;;;5.57;100.00
18985;BME280;9626;52.552;13.436;2023-12-20T07:35:44;100228.19;;;5.59;100.00
18985;BME280;9626;52.552;13.436;2023-12-20T07:38:11;100227.31;;;5.54;100.00
18985;BME280;9626;52.552;13.436;2023-12-20T07:40:38;100210.63;;;5.61;100.00
18985;BME280;9626;52.552;13.436;2023-12-20T07:43:04;100215.03;;;5.56;100.00
18985;BME280;9626;52.552;13.436;2023-12-20T07:45:30;100212.38;;;5.62;100.00
18985;BME280;9626;52.552;13.436;2023-12-20T07:47:56;100209.78;;;5.56;100.00
18985;BME280;9626;52.552;13.436;2023-12-20T07:50:22;100206.28;;;5.57;100.00
18985;BME280;9626;52.552;13.436;2023-12-20T07:52:48;100213.25;;;5.61;100.00
18985;BME280;9626;52.552;13.436;2023-12-20T07:55:14;100207.88;;;5.76;100.00
18985;BME280;9626;52.552;13.436;2023-12-20T07:57:41;100222.88;;;5.62;100.00
18985;BME280;9626;52.552;13.436;2023-12-20T08:00:07;100220.25;;;5.62;100.00
18985;BME280;9626;52.552;13.436;2023-12-20T08:02:33;100222.81;;;5.74;100.00
18985;BME280;9626;52.552;13.436;2023-12-20T08:04:59;100217.56;;;5.74;100.00
18985;BME280;9626;52.552;13.436;2023-12-20T08:07:25;100225.53;;;5.59;100.00
18985;BME280;9626;52.552;13.436;2023-12-20T08:09:51;100220.28;;;5.59;100.00
18985;BME280;9626;52.552;13.436;2023-12-20T08:12:17;100234.22;;;5.70;100.00
18985;BME280;9626;52.552;13.436;2023-12-20T08:14:46;100218.44;;;5.73;100.00
18985;BME280;9626;52.552;13.436;2023-12-20T08:17:12;100227.19;;;5.72;100.00
18985;BME280;9626;52.552;13.436;2023-12-20T08:19:38;100222.81;;;5.73;100.00
18985;BME280;9626;52.552;13.436;2023-12-20T08:22:04;100222.81;;;5.70;100.00
18985;BME280;9626;52.552;13.436;2023-12-20T08:24:30;100230.72;;;5.71;100.00
18985;BME280;9626;52.552;13.436;2023-12-20T08:26:56;100225.50;;;5.65;100.00
18985;BME280;9626;52.552;13.436;2023-12-20T08:29:22;100228.06;;;5.70;100.00
18985;BME280;9626;52.552;13.436;2023-12-20T08:31:52;100220.22;;;5.68;100.00
18985;BME280;9626;52.552;13.436;2023-12-20T08:34:19;100216.66;;;5.79;100.00
18985;BME280;9626;52.552;13.436;2023-12-20T08:36:45;100231.56;;;5.72;100.00
18985;BME280;9626;52.552;13.436;2023-12-20T08:39:14;100220.22;;;5.71;100.00
18985;BME280;9626;52.552;13.436;2023-12-20T08:41:40;100221.03;;;5.75;100.00
18985;BME280;9626;52.552;13.436;2023-12-20T08:44:06;100201.78;;;5.74;100.00
18985;BME280;9626;52.552;13.436;2023-12-20T08:46:32;100211.41;;;5.75;100.00
18985;BME280;9626;52.552;13.436;2023-12-20T08:48:58;100199.09;;;5.84;100.00
18985;BME280;9626;52.552;13.436;2023-12-20T08:51:25;100193.84;;;5.84;100.00
18985;BME280;9626;52.552;13.436;2023-12-20T08:53:51;100195.53;;;5.91;100.00
18985;BME280;9626;52.552;13.436;2023-12-20T08:56:17;100192.84;;;5.94;100.00
18985;BME280;9626;52.552;13.436;2023-12-20T08:58:45;100184.09;;;5.95;100.00
18985;BME280;9626;52.552;13.436;2023-12-20T09:01:14;100184.06;;;6.00;100.00
18985;BME280;9626;52.552;13.436;2023-12-20T09:03:40;100189.25;;;6.09;100.00
18985;BME280;9626;52.552;13.436;2023-12-20T09:06:06;100182.03;;;6.30;100.00
18985;BME280;9626;52.552;13.436;2023-12-20T09:08:32;100191.78;;;6.20;100.00
18985;BME280;9626;52.552;13.436;2023-12-20T09:10:59;100177.69;;;6.30;100.00
18985;BME280;9626;52.552;13.436;2023-12-20T09:13:26;100191.56;;;6.41;100.00
18985;BME280;9626;52.552;13.436;2023-12-20T09:15:57;100194.28;;;6.37;100.00
18985;BME280;9626;52.552;13.436;2023-12-20T09:18:24;100202.25;;;6.26;100.00
18985;BME280;9626;52.552;13.436;2023-12-20T09:20:50;100190.03;;;6.22;100.00
18985;BME280;9626;52.552;13.436;2023-12-20T09:23:16;100176.84;;;6.25;100.00
18985;BME280;9626;52.552;13.436;2023-12-20T09:25:44;100174.38;;;6.09;100.00
18985;BME280;9626;52.552;13.436;2023-12-20T09:28:10;100170.84;;;6.11;100.00
18985;BME280;9626;52.552;13.436;2023-12-20T09:30:36;100182.16;;;6.19;100.00
18985;BME280;9626;52.552;13.436;2023-12-20T09:33:05;100178.59;;;6.23;100.00
18985;BME280;9626;52.552;13.436;2023-12-20T09:35:33;100177.81;;;6.15;100.00
18985;BME280;9626;52.552;13.436;2023-12-20T09:37:59;100169.94;;;6.16;100.00
18985;BME280;9626;52.552;13.436;2023-12-20T09:40:26;100173.50;;;6.07;100.00
18985;BME280;9626;52.552;13.436;2023-12-20T09:43:03;100179.69;;;6.03;100.00
18985;BME280;9626;52.552;13.436;2023-12-20T09:45:30;100198.84;;;6.18;100.00
18985;BME280;9626;52.552;13.436;2023-12-20T09:47:57;100179.53;;;6.19;100.00
18985;BME280;9626;52.552;13.436;2023-12-20T09:50:23;100182.97;;;6.24;100.00
18985;BME280;9626;52.552;13.436;2023-12-20T09:53:09;100176.91;;;6.20;100.00
18985;BME280;9626;52.552;13.436;2023-12-20T09:55:36;100168.16;;;6.17;100.00
18985;BME280;9626;52.552;13.436;2023-12-20T09:58:02;100169.88;;;6.21;100.00
18985;BME280;9626;52.552;13.436;2023-12-20T10:00:28;100156.66;;;6.27;100.00
18985;BME280;9626;52.552;13.436;2023-12-20T10:02:58;100163.63;;;6.34;100.00
18985;BME280;9626;52.552;13.436;2023-12-20T10:05:28;100158.34;;;6.36;100.00
18985;BME280;9626;52.552;13.436;2023-12-20T10:07:54;100156.66;;;6.27;100.00
18985;BME280;9626;52.552;13.436;2023-12-20T10:10:23;100139.13;;;6.29;100.00
18985;BME280;9626;52.552;13.436;2023-12-20T10:13:02;100153.97;;;6.33;100.00
18985;BME280;9626;52.552;13.436;2023-12-20T10:15:28;100132.06;;;6.31;100.00
18985;BME280;9626;52.552;13.436;2023-12-20T10:17:54;100126.81;;;6.31;100.00
18985;BME280;9626;52.552;13.436;2023-12-20T10:20:20;100132.06;;;6.34;100.00
18985;BME280;9626;52.552;13.436;2023-12-20T10:22:46;100124.06;;;6.40;100.00
18985;BME280;9626;52.552;13.436;2023-12-20T10:25:13;100116.13;;;6.47;100.00
18985;BME280;9626;52.552;13.436;2023-12-20T10:27:39;100125.75;;;6.46;100.00
18985;BME280;9626;52.552;13.436;2023-12-20T10:30:05;100111.81;;;6.41;100.00
18985;BME280;9626;52.552;13.436;2023-12-20T10:32:31;100116.94;;;6.52;100.00
18985;BME280;9626;52.552;13.436;2023-12-20T10:34:58;100127.56;;;6.44;100.00
18985;BME280;9626;52.552;13.436;2023-12-20T10:37:25;100104.72;;;6.48;100.00
18985;BME280;9626;52.552;13.436;2023-12-20T10:39:53;100094.97;;;6.54;100.00
18985;BME280;9626;52.552;13.436;2023-12-20T10:42:22;100111.84;;;6.39;100.00
18985;BME280;9626;52.552;13.436;2023-12-20T10:44:49;100080.22;;;6.44;100.00
18985;BME280;9626;52.552;13.436;2023-12-20T10:47:16;100078.34;;;6.54;100.00
18985;BME280;9626;52.552;13.436;2023-12-20T10:49:43;100082.63;;;6.59;100.00
18985;BME280;9626;52.552;13.436;2023-12-20T10:52:11;100077.22;;;6.70;100.00
18985;BME280;9626;52.552;13.436;2023-12-20T10:54:38;100073.03;;;6.55;100.00
18985;BME280;9626;52.552;13.436;2023-12-20T10:57:06;100077.41;;;6.58;100.00
18985;BME280;9626;52.552;13.436;2023-12-20T10:59:33;100073.84;;;6.62;100.00
18985;BME280;9626;52.552;13.436;2023-12-20T11:02:03;100075.69;;;6.54;100.00
18985;BME280;9626;52.552;13.436;2023-12-20T11:04:51;100082.72;;;6.53;100.00
18985;BME280;9626;52.552;13.436;2023-12-20T11:07:38;100057.19;;;6.62;100.00
18985;BME280;9626;52.552;13.436;2023-12-20T11:13:36;100054.50;;;6.66;100.00
18985;BME280;9626;52.552;13.436;2023-12-20T11:16:03;100042.22;;;6.65;100.00
18985;BME280;9626;52.552;13.436;2023-12-20T11:18:30;100031.75;;;6.62;100.00
18985;BME280;9626;52.552;13.436;2023-12-20T11:21:06;100038.97;;;6.48;100.00
18985;BME280;9626;52.552;13.436;2023-12-20T11:23:32;100028.41;;;6.51;100.00
18985;BME280;9626;52.552;13.436;2023-12-20T11:26:02;100016.19;;;6.47;100.00
18985;BME280;9626;52.552;13.436;2023-12-20T11:28:28;100016.19;;;6.47;100.00
18985;BME280;9626;52.552;13.436;2023-12-20T11:30:57;100014.53;;;6.39;100.00
18985;BME280;9626;52.552;13.436;2023-12-20T11:33:27;100008.34;;;6.40;100.00
18985;BME280;9626;52.552;13.436;2023-12-20T11:35:59;99993.44;;;6.42;100.00
18985;BME280;9626;52.552;13.436;2023-12-20T11:38:25;99996.38;;;6.19;100.00
18985;BME280;9626;52.552;13.436;2023-12-20T11:40:54;99990.06;;;6.34;100.00
18985;BME280;9626;52.552;13.436;2023-12-20T11:43:35;99995.44;;;6.25;100.00
18985;BME280;9626;52.552;13.436;2023-12-20T11:46:04;99970.59;;;6.45;100.00
18985;BME280;9626;52.552;13.436;2023-12-20T11:48:32;99975.09;;;6.36;100.00
18985;BME280;9626;52.552;13.436;2023-12-20T11:50:58;99984.81;;;6.33;100.00
18985;BME280;9626;52.552;13.436;2023-12-20T11:53:25;99972.28;;;6.52;100.00
18985;BME280;9626;52.552;13.436;2023-12-20T11:55:51;99970.72;;;6.38;100.00
18985;BME280;9626;52.552;13.436;2023-12-20T11:58:17;99962.06;;;6.30;100.00
18985;BME280;9626;52.552;13.436;2023-12-20T12:00:43;99959.28;;;6.41;100.00
18985;BME280;9626;52.552;13.436;2023-12-20T12:03:09;99954.88;;;6.41;100.00
18985;BME280;9626;52.552;13.436;2023-12-20T12:05:35;99926.50;;;6.62;100.00
18985;BME280;9626;52.552;13.436;2023-12-20T12:08:04;99929.28;;;6.53;100.00
18985;BME280;9626;52.552;13.436;2023-12-20T12:10:31;99943.34;;;6.52;100.00
18985;BME280;9626;52.552;13.436;2023-12-20T12:12:57;99902.81;;;6.64;100.00
18985;BME280;9626;52.552;13.436;2023-12-20T12:15:23;99909.00;;;6.61;100.00
18985;BME280;9626;52.552;13.436;2023-12-20T12:17:53;99895.88;;;6.59;100.00
18985;BME280;9626;52.552;13.436;2023-12-20T12:20:20;99889.75;;;6.59;100.00
18985;BME280;9626;52.552;13.436;2023-12-20T12:22:46;99894.88;;;6.65;100.00
18985;BME280;9626;52.552;13.436;2023-12-20T12:25:22;99869.66;;;6.55;100.00
18985;BME280;9626;52.552;13.436;2023-12-20T12:27:50;99880.25;;;6.49;100.00
18985;BME280;9626;52.552;13.436;2023-12-20T12:30:17;99882.78;;;6.55;100.00
18985;BME280;9626;52.552;13.436;2023-12-20T12:32:44;99878.75;;;6.32;100.00
18985;BME280;9626;52.552;13.436;2023-12-20T12:35:10;99886.69;;;6.29;100.00
18985;BME280;9626;52.552;13.436;2023-12-20T12:37:40;99873.56;;;6.28;100.00
18985;BME280;9626;52.552;13.436;2023-12-20T12:40:10;99867.66;;;6.12;100.00
18985;BME280;9626;52.552;13.436;2023-12-20T12:42:37;99868.69;;;6.01;100.00
18985;BME280;9626;52.552;13.436;2023-12-20T12:45:04;99883.66;;;5.93;100.00
18985;BME280;9626;52.552;13.436;2023-12-20T12:47:30;99860.94;;;5.87;100.00
18985;BME280;9626;52.552;13.436;2023-12-20T12:49:56;99854.72;;;5.96;100.00
18985;BME280;9626;52.552;13.436;2023-12-20T12:52:22;99848.56;;;5.97;100.00